sensor_id;sensor_type;location;lat;lon;timestamp;P1;durP1;ratioP1;P2;durP2;ratioP2
7426;SDS011;3755;59.316;18.092;2023-12-28T00:02:25;3.30;;;1.40;;
7426;SDS011;3755;59.316;18.092;2023-12-28T00:04:55;3.23;;;1.77;;
7426;SDS011;3755;59.316;18.092;2023-12-28T00:07:24;8.00;;;1.60;;
7426;SDS011;3755;59.316;18.092;2023-12-28T00:09:51;3.03;;;1.93;;
7426;SDS011;3755;59.316;18.092;2023-12-28T00:12:23;3.57;;;1.50;;
7426;SDS011;3755;59.316;18.092;2023-12-28T00:14:51;2.47;;;1.27;;
7426;SDS011;3755;59.316;18.092;2023-12-28T00:17:20;4.07;;;2.20;;
7426;SDS011;3755;59.316;18.092;2023-12-28T00:20:04;6.53;;;1.83;;
7426;SDS011;3755;59.316;18.092;2023-12-28T00:22:35;3.33;;;1.70;;
7426;SDS011;3755;59.316;18.092;2023-12-28T00:25:04;5.40;;;1.77;;
7426;SDS011;3755;59.316;18.092;2023-12-28T00:27:46;3.90;;;1.67;;
7426;SDS011;3755;59.316;18.092;2023-12-28T00:30:15;7.60;;;1.90;;
7426;SDS011;3755;59.316;18.092;2023-12-28T00:32:43;2.40;;;1.20;;
7426;SDS011;3755;59.316;18.092;2023-12-28T00:35:11;2.63;;;1.50;;
7426;SDS011;3755;59.316;18.092;2023-12-28T00:37:39;5.63;;;1.80;;
7426;SDS011;3755;59.316;18.092;2023-12-28T00:40:06;3.23;;;1.70;;
7426;SDS011;3755;59.316;18.092;2023-12-28T00:42:35;4.30;;;1.30;;
7426;SDS011;3755;59.316;18.092;2023-12-28T00:45:07;4.97;;;2.13;;
7426;SDS011;3755;59.316;18.092;2023-12-28T00:47:37;3.73;;;1.43;;
7426;SDS011;3755;59.316;18.092;2023-12-28T00:50:05;1.87;;;1.07;;
7426;SDS011;3755;59.316;18.092;2023-12-28T00:52:32;3.63;;;1.70;;
7426;SDS011;3755;59.316;18.092;2023-12-28T00:55:01;4.30;;;1.80;;
7426;SDS011;3755;59.316;18.092;2023-12-28T00:57:31;7.17;;;1.83;;
7426;SDS011;3755;59.316;18.092;2023-12-28T00:59:59;3.57;;;1.40;;
7426;SDS011;3755;59.316;18.092;2023-12-28T01:02:31;4.67;;;1.50;;
7426;SDS011;3755;59.316;18.092;2023-12-28T01:04:59;4.83;;;2.03;;
7426;SDS011;3755;59.316;18.092;2023-12-28T01:07:27;4.23;;;1.30;;
7426;SDS011;3755;59.316;18.092;2023-12-28T01:09:54;3.43;;;1.63;;
7426;SDS011;3755;59.316;18.092;2023-12-28T01:12:22;2.53;;;1.20;;
7426;SDS011;3755;59.316;18.092;2023-12-28T01:14:49;4.13;;;1.50;;
7426;SDS011;3755;59.316;18.092;2023-12-28T01:17:16;4.37;;;1.50;;
7426;SDS011;3755;59.316;18.092;2023-12-28T01:19:46;6.03;;;1.90;;
7426;SDS011;3755;59.316;18.092;2023-12-28T01:22:14;2.47;;;1.40;;
7426;SDS011;3755;59.316;18.092;2023-12-28T01:24:45;3.90;;;1.30;;
7426;SDS011;3755;59.316;18.092;2023-12-28T01:27:14;3.37;;;1.70;;
7426;SDS011;3755;59.316;18.092;2023-12-28T01:29:43;4.87;;;1.80;;
7426;SDS011;3755;59.316;18.092;2023-12-28T01:32:11;3.03;;;1.43;;
7426;SDS011;3755;59.316;18.092;2023-12-28T01:34:39;2.70;;;1.50;;
7426;SDS011;3755;59.316;18.092;2023-12-28T01:37:09;4.57;;;1.87;;
7426;SDS011;3755;59.316;18.092;2023-12-28T01:39:37;4.90;;;1.50;;
7426;SDS011;3755;59.316;18.092;2023-12-28T01:42:05;6.77;;;1.73;;
7426;SDS011;3755;59.316;18.092;2023-12-28T01:44:33;4.90;;;2.20;;
7426;SDS011;3755;59.316;18.092;2023-12-28T01:47:05;4.33;;;1.50;;
7426;SDS011;3755;59.316;18.092;2023-12-28T01:49:46;4.07;;;2.03;;
7426;SDS011;3755;59.316;18.092;2023-12-28T01:52:17;5.50;;;2.13;;
7426;SDS011;3755;59.316;18.092;2023-12-28T01:54:45;3.70;;;1.47;;
7426;SDS011;3755;59.316;18.092;2023-12-28T01:57:23;4.87;;;1.70;;
7426;SDS011;3755;59.316;18.092;2023-12-28T01:59:51;5.43;;;1.47;;
7426;SDS011;3755;59.316;18.092;2023-12-28T02:02:20;5.30;;;1.73;;
7426;SDS011;3755;59.316;18.092;2023-12-28T02:04:50;3.47;;;1.20;;
7426;SDS011;3755;59.316;18.092;2023-12-28T02:07:19;7.63;;;1.47;;
7426;SDS011;3755;59.316;18.092;2023-12-28T02:09:47;2.97;;;1.33;;
7426;SDS011;3755;59.316;18.092;2023-12-28T02:12:14;3.60;;;1.80;;
7426;SDS011;3755;59.316;18.092;2023-12-28T02:14:42;6.43;;;1.77;;
7426;SDS011;3755;59.316;18.092;2023-12-28T02:17:10;2.97;;;1.47;;
7426;SDS011;3755;59.316;18.092;2023-12-28T02:19:43;4.37;;;1.70;;
7426;SDS011;3755;59.316;18.092;2023-12-28T02:22:16;4.43;;;1.73;;
7426;SDS011;3755;59.316;18.092;2023-12-28T02:25:10;3.43;;;1.53;;
7426;SDS011;3755;59.316;18.092;2023-12-28T02:27:38;4.33;;;1.70;;
7426;SDS011;3755;59.316;18.092;2023-12-28T02:30:06;5.57;;;1.77;;
7426;SDS011;3755;59.316;18.092;2023-12-28T02:32:37;2.07;;;1.40;;
7426;SDS011;3755;59.316;18.092;2023-12-28T02:35:18;2.37;;;1.67;;
7426;SDS011;3755;59.316;18.092;2023-12-28T02:37:50;6.20;;;1.60;;
7426;SDS011;3755;59.316;18.092;2023-12-28T02:40:21;3.00;;;2.03;;
7426;SDS011;3755;59.316;18.092;2023-12-28T02:42:50;5.40;;;1.30;;
7426;SDS011;3755;59.316;18.092;2023-12-28T02:45:17;4.37;;;1.50;;
7426;SDS011;3755;59.316;18.092;2023-12-28T02:47:45;5.93;;;1.73;;
7426;SDS011;3755;59.316;18.092;2023-12-28T02:50:12;5.57;;;2.00;;
7426;SDS011;3755;59.316;18.092;2023-12-28T02:52:39;3.80;;;1.53;;
7426;SDS011;3755;59.316;18.092;2023-12-28T02:55:06;4.70;;;1.67;;
7426;SDS011;3755;59.316;18.092;2023-12-28T02:57:35;3.10;;;1.33;;
7426;SDS011;3755;59.316;18.092;2023-12-28T03:00:04;4.57;;;1.40;;
7426;SDS011;3755;59.316;18.092;2023-12-28T03:02:34;4.37;;;1.90;;
7426;SDS011;3755;59.316;18.092;2023-12-28T03:05:02;6.37;;;1.50;;
7426;SDS011;3755;59.316;18.092;2023-12-28T03:07:30;2.37;;;1.63;;
7426;SDS011;3755;59.316;18.092;2023-12-28T03:09:57;2.87;;;1.60;;
7426;SDS011;3755;59.316;18.092;2023-12-28T03:12:24;5.13;;;1.60;;
7426;SDS011;3755;59.316;18.092;2023-12-28T03:14:53;3.60;;;1.30;;
7426;SDS011;3755;59.316;18.092;2023-12-28T03:17:20;4.10;;;1.60;;
7426;SDS011;3755;59.316;18.092;2023-12-28T03:19:47;4.03;;;1.67;;
7426;SDS011;3755;59.316;18.092;2023-12-28T03:22:14;3.67;;;1.33;;
7426;SDS011;3755;59.316;18.092;2023-12-28T03:24:42;6.00;;;1.70;;
7426;SDS011;3755;59.316;18.092;2023-12-28T03:27:10;6.33;;;1.60;;
7426;SDS011;3755;59.316;18.092;2023-12-28T03:29:37;4.70;;;1.80;;
7426;SDS011;3755;59.316;18.092;2023-12-28T03:32:06;4.53;;;1.73;;
7426;SDS011;3755;59.316;18.092;2023-12-28T03:34:33;5.17;;;1.77;;
7426;SDS011;3755;59.316;18.092;2023-12-28T03:37:00;3.27;;;1.80;;
7426;SDS011;3755;59.316;18.092;2023-12-28T03:39:27;8.40;;;2.30;;
7426;SDS011;3755;59.316;18.092;2023-12-28T03:41:54;5.53;;;1.50;;
7426;SDS011;3755;59.316;18.092;2023-12-28T03:44:21;2.47;;;1.30;;
7426;SDS011;3755;59.316;18.092;2023-12-28T03:46:49;2.53;;;1.43;;
7426;SDS011;3755;59.316;18.092;2023-12-28T03:49:18;6.87;;;1.63;;
7426;SDS011;3755;59.316;18.092;2023-12-28T03:51:47;4.23;;;1.30;;
7426;SDS011;3755;59.316;18.092;2023-12-28T03:54:15;3.17;;;1.50;;
7426;SDS011;3755;59.316;18.092;2023-12-28T03:56:43;7.87;;;1.70;;
7426;SDS011;3755;59.316;18.092;2023-12-28T03:59:10;4.30;;;1.67;;
7426;SDS011;3755;59.316;18.092;2023-12-28T04:01:37;4.47;;;1.30;;
7426;SDS011;3755;59.316;18.092;2023-12-28T04:04:05;3.50;;;1.20;;
7426;SDS011;3755;59.316;18.092;2023-12-28T04:06:37;2.80;;;1.23;;
7426;SDS011;3755;59.316;18.092;2023-12-28T04:09:12;4.23;;;1.47;;
7426;SDS011;3755;59.316;18.092;2023-12-28T04:11:39;3.43;;;1.47;;
7426;SDS011;3755;59.316;18.092;2023-12-28T04:14:07;2.97;;;1.60;;
7426;SDS011;3755;59.316;18.092;2023-12-28T04:16:34;7.03;;;1.40;;
7426;SDS011;3755;59.316;18.092;2023-12-28T04:19:01;7.63;;;1.90;;
7426;SDS011;3755;59.316;18.092;2023-12-28T04:21:29;3.27;;;1.43;;
7426;SDS011;3755;59.316;18.092;2023-12-28T04:23:57;3.30;;;1.30;;
7426;SDS011;3755;59.316;18.092;2023-12-28T04:26:24;3.47;;;1.53;;
7426;SDS011;3755;59.316;18.092;2023-12-28T04:28:53;3.67;;;1.20;;
7426;SDS011;3755;59.316;18.092;2023-12-28T04:31:20;2.00;;;1.33;;
7426;SDS011;3755;59.316;18.092;2023-12-28T04:33:47;4.13;;;1.43;;
7426;SDS011;3755;59.316;18.092;2023-12-28T04:36:14;2.23;;;1.30;;
7426;SDS011;3755;59.316;18.092;2023-12-28T04:38:41;4.70;;;1.37;;
7426;SDS011;3755;59.316;18.092;2023-12-28T04:41:10;1.87;;;1.10;;
7426;SDS011;3755;59.316;18.092;2023-12-28T04:43:38;2.87;;;1.30;;
7426;SDS011;3755;59.316;18.092;2023-12-28T04:46:05;2.77;;;1.57;;
7426;SDS011;3755;59.316;18.092;2023-12-28T04:48:32;3.17;;;1.43;;
7426;SDS011;3755;59.316;18.092;2023-12-28T04:51:02;7.97;;;1.60;;
7426;SDS011;3755;59.316;18.092;2023-12-28T04:53:29;4.73;;;1.53;;
7426;SDS011;3755;59.316;18.092;2023-12-28T04:55:57;3.73;;;1.87;;
7426;SDS011;3755;59.316;18.092;2023-12-28T04:58:26;5.77;;;1.63;;
7426;SDS011;3755;59.316;18.092;2023-12-28T05:00:53;4.33;;;1.30;;
7426;SDS011;3755;59.316;18.092;2023-12-28T05:03:21;2.37;;;1.27;;
7426;SDS011;3755;59.316;18.092;2023-12-28T05:05:48;2.47;;;1.10;;
7426;SDS011;3755;59.316;18.092;2023-12-28T05:08:17;3.60;;;1.43;;
7426;SDS011;3755;59.316;18.092;2023-12-28T05:10:44;5.73;;;1.87;;
7426;SDS011;3755;59.316;18.092;2023-12-28T05:13:13;4.40;;;1.30;;
7426;SDS011;3755;59.316;18.092;2023-12-28T05:15:42;1.70;;;1.13;;
7426;SDS011;3755;59.316;18.092;2023-12-28T05:18:09;3.57;;;1.57;;
7426;SDS011;3755;59.316;18.092;2023-12-28T05:20:36;2.47;;;1.33;;
7426;SDS011;3755;59.316;18.092;2023-12-28T05:23:04;5.03;;;1.17;;
7426;SDS011;3755;59.316;18.092;2023-12-28T05:25:31;6.73;;;1.67;;
7426;SDS011;3755;59.316;18.092;2023-12-28T05:27:58;2.53;;;1.10;;
7426;SDS011;3755;59.316;18.092;2023-12-28T05:30:26;3.87;;;1.20;;
7426;SDS011;3755;59.316;18.092;2023-12-28T05:32:54;6.67;;;1.43;;
7426;SDS011;3755;59.316;18.092;2023-12-28T05:35:21;3.10;;;1.30;;
7426;SDS011;3755;59.316;18.092;2023-12-28T05:37:48;6.43;;;1.40;;
7426;SDS011;3755;59.316;18.092;2023-12-28T05:40:15;3.90;;;1.50;;
7426;SDS011;3755;59.316;18.092;2023-12-28T05:42:43;5.77;;;1.70;;
7426;SDS011;3755;59.316;18.092;2023-12-28T05:45:10;3.60;;;1.50;;
7426;SDS011;3755;59.316;18.092;2023-12-28T05:47:38;3.33;;;1.10;;
7426;SDS011;3755;59.316;18.092;2023-12-28T05:50:07;2.80;;;1.10;;
7426;SDS011;3755;59.316;18.092;2023-12-28T05:52:34;5.37;;;1.27;;
7426;SDS011;3755;59.316;18.092;2023-12-28T05:55:01;4.23;;;1.23;;
7426;SDS011;3755;59.316;18.092;2023-12-28T05:57:29;4.70;;;1.33;;
7426;SDS011;3755;59.316;18.092;2023-12-28T05:59:56;2.97;;;1.30;;
7426;SDS011;3755;59.316;18.092;2023-12-28T06:02:23;6.47;;;2.10;;
7426;SDS011;3755;59.316;18.092;2023-12-28T06:04:51;5.00;;;1.67;;
7426;SDS011;3755;59.316;18.092;2023-12-28T06:07:20;4.87;;;1.47;;
7426;SDS011;3755;59.316;18.092;2023-12-28T06:09:48;5.43;;;1.50;;
7426;SDS011;3755;59.316;18.092;2023-12-28T06:12:16;1.77;;;1.20;;
7426;SDS011;3755;59.316;18.092;2023-12-28T06:14:43;3.10;;;1.30;;
7426;SDS011;3755;59.316;18.092;2023-12-28T06:17:10;5.50;;;1.20;;
7426;SDS011;3755;59.316;18.092;2023-12-28T06:19:40;3.53;;;1.20;;
7426;SDS011;3755;59.316;18.092;2023-12-28T06:22:07;2.40;;;1.30;;
7426;SDS011;3755;59.316;18.092;2023-12-28T06:24:38;2.53;;;1.13;;
7426;SDS011;3755;59.316;18.092;2023-12-28T06:27:06;2.53;;;1.20;;
7426;SDS011;3755;59.316;18.092;2023-12-28T06:29:34;2.53;;;1.50;;
7426;SDS011;3755;59.316;18.092;2023-12-28T06:32:02;4.30;;;1.23;;
7426;SDS011;3755;59.316;18.092;2023-12-28T06:34:30;4.00;;;1.40;;
7426;SDS011;3755;59.316;18.092;2023-12-28T06:36:57;1.83;;;0.90;;
7426;SDS011;3755;59.316;18.092;2023-12-28T06:39:26;2.67;;;1.10;;
7426;SDS011;3755;59.316;18.092;2023-12-28T06:41:55;2.97;;;0.97;;
7426;SDS011;3755;59.316;18.092;2023-12-28T06:44:23;3.23;;;1.53;;
7426;SDS011;3755;59.316;18.092;2023-12-28T06:46:51;6.07;;;1.23;;
7426;SDS011;3755;59.316;18.092;2023-12-28T06:49:32;2.73;;;1.20;;
7426;SDS011;3755;59.316;18.092;2023-12-28T06:52:00;4.73;;;1.30;;
7426;SDS011;3755;59.316;18.092;2023-12-28T06:54:28;3.10;;;0.90;;
7426;SDS011;3755;59.316;18.092;2023-12-28T06:56:57;4.83;;;1.23;;
7426;SDS011;3755;59.316;18.092;2023-12-28T06:59:24;2.20;;;1.03;;
7426;SDS011;3755;59.316;18.092;2023-12-28T07:01:51;4.50;;;1.27;;
7426;SDS011;3755;59.316;18.092;2023-12-28T07:04:19;3.87;;;1.10;;
7426;SDS011;3755;59.316;18.092;2023-12-28T07:06:46;2.13;;;1.30;;
7426;SDS011;3755;59.316;18.092;2023-12-28T07:09:13;3.63;;;0.90;;
7426;SDS011;3755;59.316;18.092;2023-12-28T07:11:40;8.70;;;1.47;;
7426;SDS011;3755;59.316;18.092;2023-12-28T07:14:13;5.37;;;1.30;;
7426;SDS011;3755;59.316;18.092;2023-12-28T07:16:47;4.13;;;1.73;;
7426;SDS011;3755;59.316;18.092;2023-12-28T07:19:14;2.87;;;1.40;;
7426;SDS011;3755;59.316;18.092;2023-12-28T07:21:41;1.00;;;0.90;;
7426;SDS011;3755;59.316;18.092;2023-12-28T07:24:08;3.83;;;1.30;;
7426;SDS011;3755;59.316;18.092;2023-12-28T07:26:37;3.87;;;0.83;;
7426;SDS011;3755;59.316;18.092;2023-12-28T07:29:04;3.00;;;1.33;;
7426;SDS011;3755;59.316;18.092;2023-12-28T07:31:35;5.57;;;1.20;;
7426;SDS011;3755;59.316;18.092;2023-12-28T07:34:02;2.80;;;1.00;;
7426;SDS011;3755;59.316;18.092;2023-12-28T07:36:30;1.70;;;0.63;;
7426;SDS011;3755;59.316;18.092;2023-12-28T07:38:59;4.43;;;0.90;;
7426;SDS011;3755;59.316;18.092;2023-12-28T07:41:26;6.87;;;1.27;;
7426;SDS011;3755;59.316;18.092;2023-12-28T07:43:54;3.37;;;1.00;;
7426;SDS011;3755;59.316;18.092;2023-12-28T07:46:39;2.17;;;1.07;;
7426;SDS011;3755;59.316;18.092;2023-12-28T07:49:26;4.13;;;1.00;;
7426;SDS011;3755;59.316;18.092;2023-12-28T07:51:58;4.20;;;1.13;;
7426;SDS011;3755;59.316;18.092;2023-12-28T07:54:26;4.00;;;1.30;;
7426;SDS011;3755;59.316;18.092;2023-12-28T07:56:53;6.27;;;1.00;;
7426;SDS011;3755;59.316;18.092;2023-12-28T07:59:23;5.63;;;1.13;;
7426;SDS011;3755;59.316;18.092;2023-12-28T08:01:52;6.07;;;1.27;;
7426;SDS011;3755;59.316;18.092;2023-12-28T08:04:19;3.30;;;1.00;;
7426;SDS011;3755;59.316;18.092;2023-12-28T08:06:47;2.40;;;0.90;;
7426;SDS011;3755;59.316;18.092;2023-12-28T08:09:17;5.77;;;1.27;;
7426;SDS011;3755;59.316;18.092;2023-12-28T08:11:45;5.90;;;1.60;;
7426;SDS011;3755;59.316;18.092;2023-12-28T08:14:13;4.27;;;1.20;;
7426;SDS011;3755;59.316;18.092;2023-12-28T08:16:55;3.07;;;1.20;;
7426;SDS011;3755;59.316;18.092;2023-12-28T08:19:23;7.10;;;1.40;;
7426;SDS011;3755;59.316;18.092;2023-12-28T08:21:50;2.03;;;1.23;;
7426;SDS011;3755;59.316;18.092;2023-12-28T08:24:17;3.20;;;0.90;;
7426;SDS011;3755;59.316;18.092;2023-12-28T08:26:45;2.20;;;1.00;;
7426;SDS011;3755;59.316;18.092;2023-12-28T08:29:13;1.23;;;0.80;;
7426;SDS011;3755;59.316;18.092;2023-12-28T08:31:43;3.80;;;1.50;;
7426;SDS011;3755;59.316;18.092;2023-12-28T08:34:13;2.00;;;0.97;;
7426;SDS011;3755;59.316;18.092;2023-12-28T08:36:53;2.37;;;1.27;;
7426;SDS011;3755;59.316;18.092;2023-12-28T08:39:21;3.77;;;1.27;;
7426;SDS011;3755;59.316;18.092;2023-12-28T08:41:49;4.70;;;1.40;;
7426;SDS011;3755;59.316;18.092;2023-12-28T08:44:36;3.47;;;1.17;;
7426;SDS011;3755;59.316;18.092;2023-12-28T08:47:04;4.53;;;2.40;;
7426;SDS011;3755;59.316;18.092;2023-12-28T08:49:34;7.73;;;2.67;;
7426;SDS011;3755;59.316;18.092;2023-12-28T08:52:02;3.73;;;1.27;;
7426;SDS011;3755;59.316;18.092;2023-12-28T08:54:45;6.00;;;2.37;;
7426;SDS011;3755;59.316;18.092;2023-12-28T08:57:27;5.43;;;1.70;;
7426;SDS011;3755;59.316;18.092;2023-12-28T09:00:11;2.40;;;1.13;;
7426;SDS011;3755;59.316;18.092;2023-12-28T09:02:55;8.20;;;2.30;;
7426;SDS011;3755;59.316;18.092;2023-12-28T09:05:25;7.97;;;2.63;;
7426;SDS011;3755;59.316;18.092;2023-12-28T09:08:15;6.23;;;2.73;;
7426;SDS011;3755;59.316;18.092;2023-12-28T09:10:43;6.37;;;2.47;;
7426;SDS011;3755;59.316;18.092;2023-12-28T09:13:14;6.13;;;1.83;;
7426;SDS011;3755;59.316;18.092;2023-12-28T09:15:56;1.37;;;0.90;;
7426;SDS011;3755;59.316;18.092;2023-12-28T09:18:26;3.40;;;1.10;;
7426;SDS011;3755;59.316;18.092;2023-12-28T09:20:55;3.20;;;2.00;;
7426;SDS011;3755;59.316;18.092;2023-12-28T09:23:37;2.60;;;1.00;;
7426;SDS011;3755;59.316;18.092;2023-12-28T09:26:06;2.37;;;1.53;;
7426;SDS011;3755;59.316;18.092;2023-12-28T09:28:46;2.53;;;1.00;;
7426;SDS011;3755;59.316;18.092;2023-12-28T09:31:14;1.37;;;0.90;;
7426;SDS011;3755;59.316;18.092;2023-12-28T09:33:56;2.60;;;0.87;;
7426;SDS011;3755;59.316;18.092;2023-12-28T09:36:26;0.80;;;0.70;;
7426;SDS011;3755;59.316;18.092;2023-12-28T09:38:54;3.63;;;1.10;;
7426;SDS011;3755;59.316;18.092;2023-12-28T09:41:36;1.13;;;1.00;;
7426;SDS011;3755;59.316;18.092;2023-12-28T09:44:07;1.73;;;0.90;;
7426;SDS011;3755;59.316;18.092;2023-12-28T09:46:49;1.47;;;0.70;;
7426;SDS011;3755;59.316;18.092;2023-12-28T09:49:18;1.30;;;0.50;;
7426;SDS011;3755;59.316;18.092;2023-12-28T09:51:51;6.97;;;1.27;;
7426;SDS011;3755;59.316;18.092;2023-12-28T09:54:48;0.77;;;0.60;;
7426;SDS011;3755;59.316;18.092;2023-12-28T09:57:15;1.83;;;0.70;;
7426;SDS011;3755;59.316;18.092;2023-12-28T09:59:43;1.87;;;0.70;;
7426;SDS011;3755;59.316;18.092;2023-12-28T10:02:11;1.53;;;0.70;;
7426;SDS011;3755;59.316;18.092;2023-12-28T10:04:38;1.00;;;0.60;;
7426;SDS011;3755;59.316;18.092;2023-12-28T10:07:08;1.90;;;1.00;;
7426;SDS011;3755;59.316;18.092;2023-12-28T10:09:36;0.93;;;0.83;;
7426;SDS011;3755;59.316;18.092;2023-12-28T10:12:04;1.27;;;1.00;;
7426;SDS011;3755;59.316;18.092;2023-12-28T10:14:35;1.47;;;0.87;;
7426;SDS011;3755;59.316;18.092;2023-12-28T10:17:02;1.90;;;0.97;;
7426;SDS011;3755;59.316;18.092;2023-12-28T10:19:31;1.97;;;1.10;;
7426;SDS011;3755;59.316;18.092;2023-12-28T10:21:59;2.17;;;1.00;;
7426;SDS011;3755;59.316;18.092;2023-12-28T10:24:29;0.73;;;0.63;;
7426;SDS011;3755;59.316;18.092;2023-12-28T10:26:56;2.60;;;0.93;;
7426;SDS011;3755;59.316;18.092;2023-12-28T10:29:24;1.27;;;0.80;;
7426;SDS011;3755;59.316;18.092;2023-12-28T10:31:52;0.60;;;0.60;;
7426;SDS011;3755;59.316;18.092;2023-12-28T10:34:21;2.20;;;1.07;;
7426;SDS011;3755;59.316;18.092;2023-12-28T10:36:49;3.07;;;0.80;;
7426;SDS011;3755;59.316;18.092;2023-12-28T10:39:19;1.87;;;0.93;;
7426;SDS011;3755;59.316;18.092;2023-12-28T10:41:49;1.77;;;0.90;;
7426;SDS011;3755;59.316;18.092;2023-12-28T10:44:26;1.80;;;0.60;;
7426;SDS011;3755;59.316;18.092;2023-12-28T10:46:57;1.67;;;0.97;;
7426;SDS011;3755;59.316;18.092;2023-12-28T10:49:28;2.00;;;0.70;;
7426;SDS011;3755;59.316;18.092;2023-12-28T10:51:59;1.00;;;0.80;;
7426;SDS011;3755;59.316;18.092;2023-12-28T10:54:33;1.80;;;0.80;;
7426;SDS011;3755;59.316;18.092;2023-12-28T10:57:11;1.07;;;0.50;;
7426;SDS011;3755;59.316;18.092;2023-12-28T10:59:46;1.03;;;0.70;;
7426;SDS011;3755;59.316;18.092;2023-12-28T11:02:23;0.80;;;0.40;;
7426;SDS011;3755;59.316;18.092;2023-12-28T11:04:59;0.70;;;0.50;;
7426;SDS011;3755;59.316;18.092;2023-12-28T11:07:27;1.90;;;0.70;;
7426;SDS011;3755;59.316;18.092;2023-12-28T11:10:10;0.50;;;0.50;;
7426;SDS011;3755;59.316;18.092;2023-12-28T11:12:42;0.70;;;0.50;;
7426;SDS011;3755;59.316;18.092;2023-12-28T11:15:11;0.90;;;0.60;;
7426;SDS011;3755;59.316;18.092;2023-12-28T11:17:39;0.67;;;0.67;;
7426;SDS011;3755;59.316;18.092;2023-12-28T11:20:08;0.97;;;0.63;;
7426;SDS011;3755;59.316;18.092;2023-12-28T11:22:36;0.73;;;0.70;;
7426;SDS011;3755;59.316;18.092;2023-12-28T11:25:04;1.30;;;0.50;;
7426;SDS011;3755;59.316;18.092;2023-12-28T11:27:33;0.70;;;0.50;;
7426;SDS011;3755;59.316;18.092;2023-12-28T11:30:05;0.50;;;0.50;;
7426;SDS011;3755;59.316;18.092;2023-12-28T11:32:37;1.07;;;0.50;;
7426;SDS011;3755;59.316;18.092;2023-12-28T11:35:07;3.97;;;0.67;;
7426;SDS011;3755;59.316;18.092;2023-12-28T11:37:36;1.40;;;0.70;;
7426;SDS011;3755;59.316;18.092;2023-12-28T11:40:10;1.33;;;0.70;;
7426;SDS011;3755;59.316;18.092;2023-12-28T11:42:47;0.87;;;0.60;;
7426;SDS011;3755;59.316;18.092;2023-12-28T11:45:21;1.47;;;0.70;;
7426;SDS011;3755;59.316;18.092;2023-12-28T11:47:58;2.70;;;0.70;;
7426;SDS011;3755;59.316;18.092;2023-12-28T11:50:26;4.33;;;1.53;;
7426;SDS011;3755;59.316;18.092;2023-12-28T11:52:54;5.07;;;0.63;;
7426;SDS011;3755;59.316;18.092;2023-12-28T11:55:21;1.10;;;0.60;;
7426;SDS011;3755;59.316;18.092;2023-12-28T11:57:51;1.67;;;0.73;;
7426;SDS011;3755;59.316;18.092;2023-12-28T12:00:20;3.23;;;0.70;;
7426;SDS011;3755;59.316;18.092;2023-12-28T12:02:50;4.03;;;0.93;;
7426;SDS011;3755;59.316;18.092;2023-12-28T12:05:18;6.63;;;1.00;;
7426;SDS011;3755;59.316;18.092;2023-12-28T12:07:45;3.40;;;0.90;;
7426;SDS011;3755;59.316;18.092;2023-12-28T12:10:14;3.30;;;0.83;;
7426;SDS011;3755;59.316;18.092;2023-12-28T12:12:41;1.90;;;0.87;;
7426;SDS011;3755;59.316;18.092;2023-12-28T12:15:09;2.20;;;1.20;;
7426;SDS011;3755;59.316;18.092;2023-12-28T12:17:38;2.47;;;1.23;;
7426;SDS011;3755;59.316;18.092;2023-12-28T12:20:10;4.00;;;1.30;;
7426;SDS011;3755;59.316;18.092;2023-12-28T12:22:37;4.73;;;1.33;;
7426;SDS011;3755;59.316;18.092;2023-12-28T12:25:07;5.00;;;1.30;;
7426;SDS011;3755;59.316;18.092;2023-12-28T12:27:36;5.90;;;1.47;;
7426;SDS011;3755;59.316;18.092;2023-12-28T12:30:04;5.27;;;1.43;;
7426;SDS011;3755;59.316;18.092;2023-12-28T12:32:33;3.43;;;1.50;;
7426;SDS011;3755;59.316;18.092;2023-12-28T12:35:04;3.10;;;1.30;;
7426;SDS011;3755;59.316;18.092;2023-12-28T12:37:32;5.17;;;1.30;;
7426;SDS011;3755;59.316;18.092;2023-12-28T12:40:00;2.17;;;1.20;;
7426;SDS011;3755;59.316;18.092;2023-12-28T12:42:43;5.03;;;1.73;;
7426;SDS011;3755;59.316;18.092;2023-12-28T12:45:18;4.03;;;2.17;;
7426;SDS011;3755;59.316;18.092;2023-12-28T12:47:50;5.43;;;2.00;;
7426;SDS011;3755;59.316;18.092;2023-12-28T12:50:20;6.13;;;1.67;;
7426;SDS011;3755;59.316;18.092;2023-12-28T12:52:48;4.53;;;1.87;;
7426;SDS011;3755;59.316;18.092;2023-12-28T12:55:15;5.87;;;1.73;;
7426;SDS011;3755;59.316;18.092;2023-12-28T12:57:42;7.40;;;1.87;;
7426;SDS011;3755;59.316;18.092;2023-12-28T13:00:11;4.07;;;1.60;;
7426;SDS011;3755;59.316;18.092;2023-12-28T13:02:39;6.70;;;2.47;;
7426;SDS011;3755;59.316;18.092;2023-12-28T13:05:08;4.83;;;2.00;;
7426;SDS011;3755;59.316;18.092;2023-12-28T13:07:37;10.07;;;2.57;;
7426;SDS011;3755;59.316;18.092;2023-12-28T13:10:10;8.10;;;3.10;;
7426;SDS011;3755;59.316;18.092;2023-12-28T13:12:39;8.73;;;3.00;;
7426;SDS011;3755;59.316;18.092;2023-12-28T13:15:07;11.70;;;3.00;;
7426;SDS011;3755;59.316;18.092;2023-12-28T13:17:38;9.90;;;3.63;;
7426;SDS011;3755;59.316;18.092;2023-12-28T13:20:19;9.13;;;3.20;;
7426;SDS011;3755;59.316;18.092;2023-12-28T13:22:49;10.77;;;4.83;;
7426;SDS011;3755;59.316;18.092;2023-12-28T13:25:17;14.03;;;5.40;;
7426;SDS011;3755;59.316;18.092;2023-12-28T13:27:47;16.60;;;4.97;;
7426;SDS011;3755;59.316;18.092;2023-12-28T13:30:14;15.33;;;5.67;;
7426;SDS011;3755;59.316;18.092;2023-12-28T13:32:42;17.20;;;5.47;;
7426;SDS011;3755;59.316;18.092;2023-12-28T13:35:10;14.83;;;6.90;;
7426;SDS011;3755;59.316;18.092;2023-12-28T13:37:37;13.33;;;5.00;;
7426;SDS011;3755;59.316;18.092;2023-12-28T13:40:07;13.63;;;5.30;;
7426;SDS011;3755;59.316;18.092;2023-12-28T13:42:35;16.60;;;5.23;;
7426;SDS011;3755;59.316;18.092;2023-12-28T13:45:03;14.30;;;4.87;;
7426;SDS011;3755;59.316;18.092;2023-12-28T13:47:32;18.40;;;5.30;;
7426;SDS011;3755;59.316;18.092;2023-12-28T13:50:01;16.87;;;5.33;;
7426;SDS011;3755;59.316;18.092;2023-12-28T13:52:34;20.40;;;6.00;;
7426;SDS011;3755;59.316;18.092;2023-12-28T13:55:16;16.10;;;6.23;;
7426;SDS011;3755;59.316;18.092;2023-12-28T13:57:58;16.37;;;6.23;;
7426;SDS011;3755;59.316;18.092;2023-12-28T14:00:25;19.80;;;6.60;;
7426;SDS011;3755;59.316;18.092;2023-12-28T14:02:52;20.33;;;5.67;;
7426;SDS011;3755;59.316;18.092;2023-12-28T14:05:20;22.50;;;6.40;;
7426;SDS011;3755;59.316;18.092;2023-12-28T14:07:48;22.23;;;6.57;;
7426;SDS011;3755;59.316;18.092;2023-12-28T14:10:18;13.87;;;6.80;;
7426;SDS011;3755;59.316;18.092;2023-12-28T14:12:46;17.67;;;6.97;;
7426;SDS011;3755;59.316;18.092;2023-12-28T14:15:13;17.03;;;6.30;;
7426;SDS011;3755;59.316;18.092;2023-12-28T14:17:50;15.00;;;6.57;;
7426;SDS011;3755;59.316;18.092;2023-12-28T14:20:17;24.00;;;6.70;;
7426;SDS011;3755;59.316;18.092;2023-12-28T14:22:45;18.40;;;7.10;;
7426;SDS011;3755;59.316;18.092;2023-12-28T14:25:14;20.50;;;7.63;;
7426;SDS011;3755;59.316;18.092;2023-12-28T14:27:44;18.60;;;7.13;;
7426;SDS011;3755;59.316;18.092;2023-12-28T14:30:14;26.53;;;7.20;;
7426;SDS011;3755;59.316;18.092;2023-12-28T14:32:42;21.30;;;7.47;;
7426;SDS011;3755;59.316;18.092;2023-12-28T14:35:11;15.93;;;7.10;;
7426;SDS011;3755;59.316;18.092;2023-12-28T14:37:42;17.70;;;6.77;;
7426;SDS011;3755;59.316;18.092;2023-12-28T14:40:09;17.57;;;6.73;;
7426;SDS011;3755;59.316;18.092;2023-12-28T14:42:37;22.70;;;6.90;;
7426;SDS011;3755;59.316;18.092;2023-12-28T14:45:07;15.40;;;7.40;;
7426;SDS011;3755;59.316;18.092;2023-12-28T14:47:38;15.70;;;6.53;;
7426;SDS011;3755;59.316;18.092;2023-12-28T14:50:06;16.23;;;6.87;;
7426;SDS011;3755;59.316;18.092;2023-12-28T14:52:34;17.60;;;5.80;;
7426;SDS011;3755;59.316;18.092;2023-12-28T14:55:07;15.47;;;7.43;;
7426;SDS011;3755;59.316;18.092;2023-12-28T14:57:47;9.77;;;5.80;;
7426;SDS011;3755;59.316;18.092;2023-12-28T15:00:16;11.60;;;4.70;;
7426;SDS011;3755;59.316;18.092;2023-12-28T15:02:44;13.50;;;4.93;;
7426;SDS011;3755;59.316;18.092;2023-12-28T15:05:11;7.27;;;3.90;;
7426;SDS011;3755;59.316;18.092;2023-12-28T15:07:42;10.17;;;4.10;;
7426;SDS011;3755;59.316;18.092;2023-12-28T15:10:24;12.87;;;4.00;;
7426;SDS011;3755;59.316;18.092;2023-12-28T15:12:54;7.03;;;3.80;;
7426;SDS011;3755;59.316;18.092;2023-12-28T15:21:51;6.10;;;3.07;;
7426;SDS011;3755;59.316;18.092;2023-12-28T15:24:33;9.13;;;4.03;;